Sipu Muin — CHCGA — position and weather

sailwx.info

Track history (hours):
 
Tides and Currents Weather Stations Pressure Air Temp Water Temp Dewpoint Dewpoint Depression Visibility Wind Speed Wind Dir Waves Ship Positions

Sipu Muin

Last reported at 2017-Oct-18 13:00 UTC. Time now 2017-Oct-18 13:25 UTC.
Position N 45°28' W 073°54'.

Length 37 m.

Type: SAR. MMSI: 316001988.

Date/timePositionNaut miles runAvg speedWind from/ knotsBaromVisibWave heightAir tempDewpointWater temp
2017-Oct-18 13:00N 45°28' W 073°54'0 0.0
2017-Oct-17 20:24N 45°28' W 073°54'0 0.0
2017-Oct-17 20:00N 45°28' W 073°54'6 4.7
2017-Oct-17 18:45N 45°27' W 074°02'1 2.6
2017-Oct-17 18:21N 45°27' W 074°01'1 4.2
2017-Oct-17 18:00N 45°26' W 073°59'1 1.5
2017-Oct-17 17:29N 45°25' W 073°59'1 1.8
2017-Oct-17 16:46N 45°25' W 073°58'416.5
2017-Oct-17 16:30N 45°28' W 073°54'0 0.1
2017-Oct-17 16:00N 45°28' W 073°54'0 0.0
2017-Oct-17 15:30N 45°28' W 073°54'0 0.0
2017-Oct-16 15:30N 45°28' W 073°54'4 8.2
2017-Oct-16 14:57N 45°24' W 073°57'12 0.6
2017-Oct-15 19:12N 45°25' W 073°39'631.5
2017-Oct-15 19:01N 45°24' W 073°48'8 7.4
2017-Oct-15 17:55N 45°21' W 073°59'1023.5
2017-Oct-15 17:30N 45°24' W 073°46'4 3.3
2017-Oct-15 16:10N 45°25' W 073°40'421.9
2017-Oct-15 16:00N 45°24' W 073°45'1113.6
2017-Oct-15 15:12N 45°23' W 074°00'0 0.1
2017-Oct-15 14:00N 45°23' W 074°00'2 3.6
2017-Oct-15 13:29N 45°21' W 073°59'14 0.8
2017-Oct-14 19:15N 45°25' W 073°40'833.7
2017-Oct-14 19:00N 45°25' W 073°51'4 7.7
2017-Oct-14 18:30N 45°24' W 073°56'1 1.5
2017-Oct-14 17:59N 45°24' W 073°55'1 2.7
2017-Oct-14 17:30N 45°24' W 073°54'10 5.2
2017-Oct-14 15:35N 45°25' W 073°40'219.0
2017-Oct-14 15:30N 45°25' W 073°42'917.6
2017-Oct-14 15:00N 45°24' W 073°54'1 2.7
2017-Oct-14 14:30N 45°23' W 073°52'1 1.2
2017-Oct-14 13:58N 45°23' W 073°52'1 2.0
2017-Oct-14 13:26N 45°22' W 073°51'9 0.4
2017-Oct-13 11:56N 45°25' W 073°38'0 0.4
2017-Oct-13 10:51N 45°24' W 073°38'1 0.1
2017-Oct-12 19:54N 45°25' W 073°39'1024.7
2017-Oct-12 19:30N 45°24' W 073°53'1 1.6
2017-Oct-12 18:58N 45°24' W 073°52'3 1.4
2017-Oct-12 16:51N 45°25' W 073°48'1 2.1
2017-Oct-12 16:31N 45°25' W 073°49'1 2.9
2017-Oct-12 16:00N 45°26' W 073°47'0 0.9
2017-Oct-12 15:30N 45°26' W 073°46'1 1.6
2017-Oct-12 15:00N 45°25' W 073°45'5 5.0
2017-Oct-12 13:55N 45°24' W 073°38'2 0.1
2017-Oct-11 19:38N 45°25' W 073°40'429.3
2017-Oct-11 19:29N 45°26' W 073°46'1 1.2
2017-Oct-11 19:00N 45°26' W 073°45'1 2.1
2017-Oct-11 18:30N 45°25' W 073°45'  
Track history (hours):
 
Tides and Currents Weather Stations Pressure Air Temp Water Temp Dewpoint Dewpoint Depression Visibility Wind Speed Wind Dir Waves Ship Positions

Sipu Muin

Last reported at 2017-Oct-18 13:00 UTC. Time now 2017-Oct-18 13:25 UTC.
Position N 45°28' W 073°54'.

Length 37 m.

Type: SAR. MMSI: 316001988.

Date/timePositionNaut miles runAvg speedWind from/ knotsBaromVisibWave heightAir tempDewpointWater temp
2017-Oct-18 13:00N 45°28' W 073°54'0 0.0
2017-Oct-17 20:24N 45°28' W 073°54'0 0.0
2017-Oct-17 20:00N 45°28' W 073°54'6 4.7
2017-Oct-17 18:45N 45°27' W 074°02'1 2.6
2017-Oct-17 18:21N 45°27' W 074°01'1 4.2
2017-Oct-17 18:00N 45°26' W 073°59'1 1.5
2017-Oct-17 17:29N 45°25' W 073°59'1 1.8
2017-Oct-17 16:46N 45°25' W 073°58'416.5
2017-Oct-17 16:30N 45°28' W 073°54'0 0.1
2017-Oct-17 16:00N 45°28' W 073°54'0 0.0
2017-Oct-17 15:30N 45°28' W 073°54'0 0.0
2017-Oct-16 15:30N 45°28' W 073°54'4 8.2
2017-Oct-16 14:57N 45°24' W 073°57'12 0.6
2017-Oct-15 19:12N 45°25' W 073°39'631.5
2017-Oct-15 19:01N 45°24' W 073°48'8 7.4
2017-Oct-15 17:55N 45°21' W 073°59'1023.5
2017-Oct-15 17:30N 45°24' W 073°46'4 3.3
2017-Oct-15 16:10N 45°25' W 073°40'421.9
2017-Oct-15 16:00N 45°24' W 073°45'1113.6
2017-Oct-15 15:12N 45°23' W 074°00'0 0.1
2017-Oct-15 14:00N 45°23' W 074°00'2 3.6
2017-Oct-15 13:29N 45°21' W 073°59'14 0.8
2017-Oct-14 19:15N 45°25' W 073°40'833.7
2017-Oct-14 19:00N 45°25' W 073°51'4 7.7
2017-Oct-14 18:30N 45°24' W 073°56'1 1.5
2017-Oct-14 17:59N 45°24' W 073°55'1 2.7
2017-Oct-14 17:30N 45°24' W 073°54'10 5.2
2017-Oct-14 15:35N 45°25' W 073°40'219.0
2017-Oct-14 15:30N 45°25' W 073°42'917.6
2017-Oct-14 15:00N 45°24' W 073°54'1 2.7
2017-Oct-14 14:30N 45°23' W 073°52'1 1.2
2017-Oct-14 13:58N 45°23' W 073°52'1 2.0
2017-Oct-14 13:26N 45°22' W 073°51'9 0.4
2017-Oct-13 11:56N 45°25' W 073°38'0 0.4
2017-Oct-13 10:51N 45°24' W 073°38'1 0.1
2017-Oct-12 19:54N 45°25' W 073°39'1024.7
2017-Oct-12 19:30N 45°24' W 073°53'1 1.6
2017-Oct-12 18:58N 45°24' W 073°52'3 1.4
2017-Oct-12 16:51N 45°25' W 073°48'1 2.1
2017-Oct-12 16:31N 45°25' W 073°49'1 2.9
2017-Oct-12 16:00N 45°26' W 073°47'0 0.9
2017-Oct-12 15:30N 45°26' W 073°46'1 1.6
2017-Oct-12 15:00N 45°25' W 073°45'5 5.0
2017-Oct-12 13:55N 45°24' W 073°38'2 0.1
2017-Oct-11 19:38N 45°25' W 073°40'429.3
2017-Oct-11 19:29N 45°26' W 073°46'1 1.2
2017-Oct-11 19:00N 45°26' W 073°45'1 2.1
2017-Oct-11 18:30N 45°25' W 073°45'  

Dump ship's entire track history